createdAt,value
2018-04-29T00:02:21.087Z,14.59
2018-04-29T00:04:50.667Z,14.53
2018-04-29T00:07:20.256Z,14.27
2018-04-29T00:09:50.471Z,14.21
2018-04-29T00:12:20.542Z,14.02
2018-04-29T00:14:50.181Z,14.03
2018-04-29T00:17:19.903Z,14.04
2018-04-29T00:19:49.746Z,14.06
2018-04-29T00:22:19.667Z,14.06
2018-04-29T00:24:49.250Z,13.84
2018-04-29T00:27:18.798Z,13.74
2018-04-29T00:29:48.329Z,13.67
2018-04-29T00:32:17.970Z,13.60
2018-04-29T00:34:47.484Z,13.67
2018-04-29T00:37:17.458Z,13.69
2018-04-29T00:39:47.038Z,13.92
2018-04-29T00:42:16.560Z,13.98
2018-04-29T00:44:45.880Z,14.11
2018-04-29T00:47:15.430Z,14.18
2018-04-29T00:49:45.356Z,14.18
2018-04-29T00:52:15.274Z,14.23
2018-04-29T00:54:45.100Z,14.20
2018-04-29T00:57:14.634Z,14.16
2018-04-29T00:59:44.188Z,14.05
2018-04-29T01:02:14.110Z,14.05
2018-04-29T01:04:43.720Z,14.02
2018-04-29T01:07:13.654Z,13.94
2018-04-29T01:09:42.938Z,13.92
2018-04-29T01:12:12.139Z,13.92
2018-04-29T01:14:41.766Z,13.76
2018-04-29T01:17:11.277Z,13.79
2018-04-29T01:19:40.877Z,13.94
2018-04-29T01:22:10.421Z,13.93
2018-04-29T01:24:39.944Z,13.79
2018-04-29T01:27:09.494Z,13.72
2018-04-29T01:29:39.042Z,13.74
2018-04-29T01:32:08.882Z,13.61
2018-04-29T01:34:38.804Z,13.58
2018-04-29T01:37:08.738Z,13.72
2018-04-29T01:39:38.562Z,13.80
2018-04-29T01:42:08.104Z,13.49
2018-04-29T01:44:37.641Z,13.62
2018-04-29T01:47:07.567Z,13.59
2018-04-29T01:49:37.099Z,13.80
2018-04-29T01:52:06.600Z,13.49
2018-04-29T01:54:36.134Z,13.26
2018-04-29T01:57:05.678Z,12.91
2018-04-29T01:59:35.597Z,12.83
2018-04-29T02:02:05.634Z,13.02
2018-04-29T02:04:35.169Z,13.04
2018-04-29T02:07:04.705Z,13.07
2018-04-29T02:09:34.267Z,12.92
2018-04-29T02:12:03.836Z,12.66
2018-04-29T02:14:34.449Z,12.67
2018-04-29T02:17:03.963Z,12.56
2018-04-29T02:19:33.501Z,12.40
2018-04-29T02:22:03.048Z,12.26
2018-04-29T02:24:32.927Z,12.44
2018-04-29T02:27:02.543Z,12.30
2018-04-29T02:29:32.077Z,12.22
2018-04-29T02:32:01.601Z,12.24
2018-04-29T02:34:31.121Z,12.15
2018-04-29T02:37:01.059Z,12.13
2018-04-29T02:39:30.591Z,12.27
2018-04-29T02:42:00.109Z,12.31
2018-04-29T02:44:29.637Z,12.30
2018-04-29T02:46:59.168Z,12.14
2018-04-29T02:49:29.112Z,12.01
2018-04-29T02:51:58.639Z,11.88
2018-04-29T02:54:28.155Z,12.01
2018-04-29T02:56:57.120Z,11.94
2018-04-29T02:59:26.654Z,11.87
2018-04-29T03:01:56.263Z,11.85
2018-04-29T03:04:25.932Z,11.69
2018-04-29T03:06:55.456Z,11.46
2018-04-29T03:10:26.743Z,11.38
2018-04-29T03:12:56.298Z,11.20
2018-04-29T03:15:25.833Z,11.16
2018-04-29T03:17:55.360Z,11.02
2018-04-29T03:20:24.925Z,11.09
2018-04-29T03:22:54.459Z,11.08
2018-04-29T03:25:24.001Z,11.16
2018-04-29T03:27:53.573Z,11.22
2018-04-29T03:30:23.097Z,11.27
2018-04-29T03:32:52.825Z,11.25
2018-04-29T03:35:22.369Z,11.25
2018-04-29T03:37:51.640Z,11.26
2018-04-29T03:40:21.405Z,11.31
2018-04-29T03:42:50.933Z,11.31
2018-04-29T03:45:20.471Z,11.35
2018-04-29T03:47:50.397Z,11.49
2018-04-29T03:50:19.927Z,11.64
2018-04-29T03:52:49.814Z,11.93
2018-04-29T03:55:19.574Z,12.04
2018-04-29T03:58:05.853Z,12.30
2018-04-29T04:00:58.735Z,12.35
2018-04-29T04:03:55.647Z,12.41
2018-04-29T04:06:25.705Z,12.16
2018-04-29T04:08:55.228Z,12.07
2018-04-29T04:11:24.737Z,12.04
2018-04-29T04:13:54.665Z,11.96
2018-04-29T04:16:24.619Z,11.84
2018-04-29T04:18:54.149Z,11.64
2018-04-29T04:21:23.700Z,11.52
2018-04-29T04:23:53.630Z,11.41
2018-04-29T04:26:23.149Z,11.32
2018-04-29T04:28:52.914Z,11.27
2018-04-29T04:31:22.452Z,11.22
2018-04-29T04:33:51.996Z,11.14
2018-04-29T04:36:21.600Z,11.22
2018-04-29T04:38:51.183Z,11.26
2018-04-29T04:41:20.718Z,11.27
2018-04-29T04:43:50.243Z,11.31
2018-04-29T04:46:19.952Z,11.12
2018-04-29T04:48:49.271Z,10.98
2018-04-29T04:51:19.480Z,11.01
2018-04-29T04:53:49.435Z,10.98
2018-04-29T04:56:18.734Z,11.06
2018-04-29T04:58:48.529Z,11.11
2018-04-29T05:01:18.455Z,11.14
2018-04-29T05:03:48.605Z,11.12
2018-04-29T05:06:18.365Z,11.67
2018-04-29T05:08:48.339Z,12.61
2018-04-29T05:11:17.882Z,12.59
2018-04-29T05:13:47.451Z,12.34
2018-04-29T05:16:17.101Z,13.02
2018-04-29T05:18:46.403Z,13.82
2018-04-29T05:21:16.373Z,14.10
2018-04-29T05:23:45.943Z,14.51
2018-04-29T05:26:15.853Z,14.72
2018-04-29T05:28:45.601Z,14.71
2018-04-29T05:31:14.957Z,14.81
2018-04-29T05:33:44.891Z,14.75
2018-04-29T05:36:14.419Z,14.61
2018-04-29T05:38:43.943Z,14.74
2018-04-29T05:41:13.500Z,14.97
2018-04-29T05:43:43.445Z,14.93
2018-04-29T05:46:13.046Z,15.02
2018-04-29T05:48:42.621Z,15.42
2018-04-29T05:51:12.542Z,15.31
2018-04-29T05:53:42.484Z,15.41
2018-04-29T05:56:12.041Z,15.58
2018-04-29T05:58:41.583Z,15.99
2018-04-29T06:01:11.560Z,16.35
2018-04-29T06:03:42.309Z,16.72
2018-04-29T06:06:11.835Z,16.25
2018-04-29T06:08:41.763Z,15.88
2018-04-29T06:11:11.298Z,15.57
2018-04-29T06:13:40.884Z,15.80
2018-04-29T06:16:10.419Z,15.44
2018-04-29T06:18:40.773Z,15.31
2018-04-29T06:21:10.306Z,15.13
2018-04-29T06:23:41.561Z,15.10
2018-04-29T06:26:11.220Z,15.37
2018-04-29T06:28:40.870Z,15.10
2018-04-29T06:31:10.829Z,15.56
2018-04-29T06:33:40.590Z,15.34
2018-04-29T06:36:10.549Z,14.99
2018-04-29T06:38:40.115Z,15.16
2018-04-29T06:41:10.027Z,15.21
2018-04-29T06:43:39.937Z,14.99
2018-04-29T06:46:09.889Z,14.93
2018-04-29T06:48:39.449Z,14.90
2018-04-29T06:51:08.971Z,14.70
2018-04-29T06:53:38.924Z,14.80
2018-04-29T06:56:08.509Z,15.11
2018-04-29T06:58:38.088Z,15.47
2018-04-29T07:01:07.607Z,15.47
2018-04-29T07:03:37.289Z,15.34
2018-04-29T07:06:06.857Z,15.45
2018-04-29T07:08:36.419Z,15.59
2018-04-29T07:11:05.951Z,15.68
2018-04-29T07:13:35.477Z,15.79
2018-04-29T07:16:04.979Z,15.67
2018-04-29T07:18:34.490Z,15.37
2018-04-29T07:21:04.050Z,15.29
2018-04-29T07:23:33.605Z,15.36
2018-04-29T07:26:04.150Z,15.47
2018-04-29T07:28:34.275Z,15.53
2018-04-29T07:31:03.985Z,15.74
2018-04-29T07:33:33.499Z,15.88
2018-04-29T07:36:03.074Z,15.81
2018-04-29T07:38:32.605Z,16.23
2018-04-29T07:41:02.133Z,16.35
2018-04-29T07:43:31.684Z,16.19
2018-04-29T07:46:01.220Z,15.93
2018-04-29T07:48:31.591Z,15.86
2018-04-29T07:51:01.552Z,15.89
2018-04-29T07:53:30.768Z,15.99
2018-04-29T07:56:00.290Z,16.07
2018-04-29T07:58:29.860Z,16.14
2018-04-29T08:00:59.392Z,16.12
2018-04-29T08:03:28.942Z,16.23
2018-04-29T08:05:58.516Z,16.35
2018-04-29T08:08:28.088Z,16.82
2018-04-29T08:10:57.619Z,16.68
2018-04-29T08:13:27.156Z,16.80
2018-04-29T08:15:57.084Z,16.69
2018-04-29T08:18:27.010Z,17.04
2018-04-29T08:20:56.542Z,17.07
2018-04-29T08:23:26.112Z,17.07
2018-04-29T08:25:56.036Z,16.91
2018-04-29T08:28:25.594Z,16.96
2018-04-29T08:30:55.830Z,17.37
2018-04-29T08:33:25.798Z,17.15
2018-04-29T08:35:55.314Z,17.02
2018-04-29T08:38:25.076Z,17.20
2018-04-29T08:40:55.010Z,16.97
2018-04-29T08:43:24.581Z,17.28
2018-04-29T08:45:54.124Z,17.62
2018-04-29T08:48:23.696Z,17.64
2018-04-29T08:50:53.234Z,18.04
2018-04-29T08:53:22.750Z,18.59
2018-04-29T08:55:52.944Z,18.41
2018-04-29T08:58:23.217Z,18.78
2018-04-29T09:00:52.787Z,19.00
2018-04-29T09:03:22.727Z,18.41
2018-04-29T09:05:52.280Z,18.07
2018-04-29T09:08:21.804Z,17.90
2018-04-29T09:10:51.369Z,17.94
2018-04-29T09:13:21.023Z,18.32
2018-04-29T09:15:50.937Z,18.47
2018-04-29T09:18:20.904Z,18.78
2018-04-29T09:20:50.416Z,18.93
2018-04-29T09:23:19.955Z,19.06
2018-04-29T09:25:49.803Z,19.11
2018-04-29T09:28:19.125Z,19.40
2018-04-29T09:30:48.660Z,19.35
2018-04-29T09:33:18.168Z,19.41
2018-04-29T09:35:47.747Z,19.61
2018-04-29T09:38:17.283Z,19.85
2018-04-29T09:40:46.602Z,20.03
2018-04-29T09:43:16.156Z,20.32
2018-04-29T09:45:45.876Z,20.13
2018-04-29T09:48:15.404Z,20.41
2018-04-29T09:50:44.946Z,20.87
2018-04-29T09:53:14.494Z,21.02
2018-04-29T09:55:44.070Z,21.50
2018-04-29T09:58:13.598Z,21.55
2018-04-29T10:00:48.952Z,22.00
2018-04-29T10:03:20.134Z,21.66
2018-04-29T10:05:50.002Z,21.74
2018-04-29T10:08:20.068Z,21.24
2018-04-29T10:10:50.156Z,21.58
2018-04-29T10:13:19.953Z,21.09
2018-04-29T10:15:50.492Z,21.09
2018-04-29T10:18:21.054Z,21.27
2018-04-29T10:20:51.658Z,21.29
2018-04-29T10:23:21.883Z,21.43
2018-04-29T10:25:51.976Z,22.09
2018-04-29T10:28:22.294Z,22.12
2018-04-29T10:30:52.457Z,22.08
2018-04-29T10:33:23.253Z,22.06
2018-04-29T10:35:53.528Z,22.12
2018-04-29T10:38:23.634Z,22.14
2018-04-29T10:40:53.739Z,22.20
2018-04-29T10:43:24.237Z,22.40
2018-04-29T10:45:54.770Z,23.07
2018-04-29T10:48:24.946Z,22.82
2018-04-29T10:50:55.132Z,22.88
2018-04-29T10:53:25.287Z,22.70
2018-04-29T10:55:55.537Z,22.56
2018-04-29T10:58:25.711Z,23.14
2018-04-29T11:00:55.820Z,23.78
2018-04-29T11:03:26.297Z,23.83
2018-04-29T11:05:56.433Z,23.86
2018-04-29T11:08:26.844Z,23.94
2018-04-29T11:10:56.958Z,23.52
2018-04-29T11:13:27.064Z,23.46
2018-04-29T11:15:57.284Z,23.41
2018-04-29T11:18:27.278Z,23.34
2018-04-29T11:20:57.496Z,23.29
2018-04-29T11:23:27.788Z,23.63
2018-04-29T11:25:57.965Z,24.03
2018-04-29T11:28:28.067Z,24.26
2018-04-29T11:30:58.789Z,23.90
2018-04-29T11:33:28.908Z,24.28
2018-04-29T11:35:59.840Z,24.29
2018-04-29T11:38:29.932Z,24.56
2018-04-29T11:41:00.880Z,24.44
2018-04-29T11:43:31.020Z,24.44
2018-04-29T11:46:01.525Z,24.21
2018-04-29T11:48:31.806Z,24.05
2018-04-29T11:51:01.866Z,24.16
2018-04-29T11:53:32.012Z,24.23
2018-04-29T11:56:02.126Z,24.49
2018-04-29T11:58:32.245Z,24.77
2018-04-29T12:01:02.405Z,24.47
2018-04-29T12:03:32.588Z,24.81
2018-04-29T12:06:02.742Z,24.84
2018-04-29T12:08:33.258Z,25.13
2018-04-29T12:11:03.800Z,25.51
2018-04-29T12:13:34.081Z,25.62
2018-04-29T12:16:04.220Z,25.69
2018-04-29T12:18:34.334Z,25.45
2018-04-29T12:21:04.186Z,25.45
2018-04-29T12:23:34.638Z,25.90
2018-04-29T12:26:04.758Z,25.68
2018-04-29T12:28:34.827Z,26.05
2018-04-29T12:31:04.943Z,26.00
2018-04-29T12:33:35.194Z,26.18
2018-04-29T12:36:05.405Z,26.25
2018-04-29T12:38:35.681Z,25.63
2018-04-29T12:41:05.853Z,25.62
2018-04-29T12:43:36.312Z,26.34
2018-04-29T12:46:06.928Z,26.50
2018-04-29T12:48:37.062Z,26.91
2018-04-29T12:51:07.150Z,27.11
2018-04-29T12:53:37.268Z,27.09
2018-04-29T12:56:07.866Z,27.43
2018-04-29T12:58:37.930Z,27.77
2018-04-29T13:01:08.022Z,28.18
2018-04-29T13:03:38.618Z,28.55
2018-04-29T13:06:08.904Z,28.83
2018-04-29T13:08:39.387Z,28.96
2018-04-29T13:11:09.505Z,28.46
2018-04-29T13:13:40.152Z,28.88
2018-04-29T13:16:10.418Z,29.11
2018-04-29T13:18:40.507Z,29.27
2018-04-29T13:21:10.603Z,29.35
2018-04-29T13:23:40.485Z,29.48
2018-04-29T13:26:10.584Z,29.77
2018-04-29T13:28:41.052Z,29.15
2018-04-29T13:31:11.161Z,28.92
2018-04-29T13:33:41.314Z,28.75
2018-04-29T13:36:11.428Z,29.03
2018-04-29T13:38:41.558Z,29.02
2018-04-29T13:41:11.654Z,29.12
2018-04-29T13:43:41.749Z,28.90
2018-04-29T13:46:12.791Z,28.91
2018-04-29T13:48:43.000Z,28.78
2018-04-29T13:51:13.109Z,28.81
2018-04-29T13:53:43.245Z,28.82
2018-04-29T13:56:13.031Z,28.83
2018-04-29T13:58:43.562Z,29.04
2018-04-29T14:01:13.876Z,28.74
2018-04-29T14:03:44.397Z,27.81
2018-04-29T14:06:15.440Z,27.67
2018-04-29T14:08:45.672Z,27.08
2018-04-29T14:11:15.797Z,27.04
2018-04-29T14:13:46.294Z,27.30
2018-04-29T14:16:16.454Z,27.66
2018-04-29T14:18:46.551Z,28.09
2018-04-29T14:21:16.675Z,28.14
2018-04-29T14:23:47.163Z,28.22
2018-04-29T14:26:17.265Z,28.01
2018-04-29T14:28:47.364Z,28.07
2018-04-29T14:31:17.499Z,28.42
2018-04-29T14:33:48.199Z,28.38
2018-04-29T14:36:18.781Z,27.96
2018-04-29T14:38:48.924Z,27.90
2018-04-29T14:41:19.087Z,27.77
2018-04-29T14:43:49.231Z,27.64
2018-04-29T14:46:19.565Z,27.45
2018-04-29T14:48:49.807Z,27.41
2018-04-29T14:51:20.204Z,27.22
2018-04-29T14:53:50.417Z,27.06
2018-04-29T14:56:20.617Z,26.90
2018-04-29T14:58:51.441Z,26.77
2018-04-29T15:01:21.705Z,26.61
2018-04-29T15:03:51.935Z,26.68
2018-04-29T15:06:22.067Z,26.50
2018-04-29T15:08:52.392Z,26.50
2018-04-29T15:11:22.537Z,26.49
2018-04-29T15:13:52.672Z,26.37
2018-04-29T15:16:22.944Z,26.38
2018-04-29T15:18:58.976Z,26.20
2018-04-29T15:21:29.093Z,26.13
2018-04-29T15:23:59.207Z,26.04
2018-04-29T15:26:29.787Z,26.01
2018-04-29T15:29:00.054Z,25.93
2018-04-29T15:31:30.169Z,25.87
2018-04-29T15:34:00.341Z,25.85
2018-04-29T15:36:30.435Z,25.76
2018-04-29T15:39:00.928Z,25.73
2018-04-29T15:41:31.108Z,25.82
2018-04-29T15:44:01.184Z,25.76
2018-04-29T15:46:31.772Z,25.59
2018-04-29T15:49:02.362Z,25.65
2018-04-29T15:51:32.537Z,25.66
2018-04-29T15:54:05.922Z,25.62
2018-04-29T15:56:36.045Z,25.58
2018-04-29T15:59:05.650Z,25.51
2018-04-29T16:01:35.818Z,25.36
2018-04-29T16:04:06.362Z,25.26
2018-04-29T16:06:36.494Z,25.41
2018-04-29T16:09:07.195Z,25.43
2018-04-29T16:11:37.796Z,25.31
2018-04-29T16:14:08.041Z,25.23
2018-04-29T16:16:38.647Z,25.20
2018-04-29T16:19:08.773Z,25.18
2018-04-29T16:21:38.987Z,25.08
2018-04-29T16:24:09.120Z,25.09
2018-04-29T16:26:39.191Z,25.16
2018-04-29T16:29:09.309Z,25.13
2018-04-29T16:31:39.409Z,25.08
2018-04-29T16:34:09.763Z,25.08
2018-04-29T16:36:39.659Z,24.99
2018-04-29T16:39:10.027Z,24.86
2018-04-29T16:41:40.392Z,24.76
2018-04-29T16:44:10.404Z,24.67
2018-04-29T16:46:40.529Z,24.61
2018-04-29T16:49:11.028Z,24.66
2018-04-29T16:51:41.148Z,24.61
2018-04-29T16:54:11.307Z,24.59
2018-04-29T16:56:41.815Z,24.64
2018-04-29T16:59:11.919Z,24.47
2018-04-29T17:01:42.405Z,24.51
2018-04-29T17:04:12.547Z,24.45
2018-04-29T17:06:42.646Z,24.35
2018-04-29T17:09:12.744Z,24.39
2018-04-29T17:11:43.259Z,24.33
2018-04-29T17:14:13.405Z,24.18
2018-04-29T17:16:43.498Z,24.09
2018-04-29T17:19:13.605Z,23.81
2018-04-29T17:21:44.065Z,23.76
2018-04-29T17:24:14.607Z,23.74
2018-04-29T17:26:45.528Z,23.65
2018-04-29T17:29:16.203Z,23.65
2018-04-29T17:31:46.405Z,23.48
2018-04-29T17:34:16.515Z,23.29
2018-04-29T17:36:46.612Z,23.16
2018-04-29T17:39:16.807Z,23.04
2018-04-29T17:41:47.029Z,23.06
2018-04-29T17:44:17.164Z,23.08
2018-04-29T17:46:47.312Z,23.01
2018-04-29T17:49:17.971Z,22.95
2018-04-29T17:51:48.353Z,22.86
2018-04-29T17:54:18.476Z,22.81
2018-04-29T17:56:48.580Z,22.85
2018-04-29T17:59:18.708Z,22.88
2018-04-29T18:01:48.829Z,22.83
2018-04-29T18:04:19.362Z,22.86
2018-04-29T18:06:49.980Z,22.74
2018-04-29T18:09:20.148Z,22.72
2018-04-29T18:11:50.628Z,22.63
2018-04-29T18:14:20.860Z,22.66
2018-04-29T18:16:51.026Z,22.59
2018-04-29T18:22:57.160Z,22.46
2018-04-29T18:25:27.298Z,22.32
2018-04-29T18:27:57.748Z,22.26
2018-04-29T18:30:27.873Z,22.28
2018-04-29T18:32:58.154Z,22.21
2018-04-29T18:35:28.268Z,22.24
2018-04-29T18:37:58.432Z,22.30
2018-04-29T18:40:28.679Z,22.20
2018-04-29T18:42:58.776Z,22.09
2018-04-29T18:45:29.282Z,22.10
2018-04-29T18:47:59.382Z,21.98
2018-04-29T18:50:29.632Z,21.90
2018-04-29T18:53:00.260Z,21.94
2018-04-29T18:55:30.348Z,21.85
2018-04-29T18:58:00.456Z,21.82
2018-04-29T19:00:30.522Z,21.85
2018-04-29T19:03:00.620Z,21.81
2018-04-29T19:05:47.951Z,21.86
2018-04-29T19:08:18.278Z,21.78
2018-04-29T19:10:48.420Z,21.70
2018-04-29T19:13:18.500Z,21.66
2018-04-29T19:15:48.660Z,21.62
2018-04-29T19:18:19.178Z,21.57
2018-04-29T19:20:49.865Z,21.56
2018-04-29T19:23:19.970Z,21.40
2018-04-29T19:39:05.200Z,21.12
2018-04-29T19:41:35.706Z,21.24
2018-04-29T19:44:06.216Z,21.24
2018-04-29T19:46:36.346Z,21.20
2018-04-29T19:49:06.564Z,21.18
2018-04-29T19:51:37.479Z,21.23
2018-04-29T19:54:07.572Z,21.18
2018-04-29T19:56:38.084Z,21.06
2018-04-29T19:59:08.620Z,21.14
2018-04-29T20:02:26.554Z,21.14
2018-04-29T20:04:56.743Z,21.09
2018-04-29T20:07:26.866Z,21.09
2018-04-29T20:09:57.622Z,21.02
2018-04-29T20:12:27.729Z,20.95
2018-04-29T20:14:58.712Z,20.96
2018-04-29T20:17:28.849Z,20.95
2018-04-29T20:19:59.596Z,20.96
2018-04-29T20:22:29.738Z,21.04
2018-04-29T20:24:59.985Z,21.06
2018-04-29T20:27:30.132Z,21.07
2018-04-29T20:33:36.811Z,21.04
2018-04-29T20:36:07.072Z,21.05
2018-04-29T20:38:36.866Z,21.00
2018-04-29T20:41:07.221Z,20.95
2018-04-29T20:43:37.338Z,20.80
2018-04-29T20:46:07.504Z,20.73
2018-04-29T20:48:37.042Z,20.67
2018-04-29T20:51:07.017Z,20.60
2018-04-29T20:53:37.119Z,20.58
2018-04-29T20:56:07.193Z,20.56
2018-04-29T20:58:37.303Z,20.43
2018-04-29T21:01:06.838Z,20.38
2018-04-29T21:03:36.956Z,20.32
2018-04-29T21:06:06.508Z,20.32
2018-04-29T21:08:36.581Z,20.35
2018-04-29T21:11:06.950Z,20.35
2018-04-29T21:13:36.507Z,20.40
2018-04-29T21:16:06.243Z,20.44
2018-04-29T21:18:35.816Z,20.44
2018-04-29T21:21:05.378Z,20.46
2018-04-29T21:23:34.991Z,20.48
2018-04-29T21:26:04.215Z,20.48
2018-04-29T21:28:33.729Z,20.48
2018-04-29T21:31:03.307Z,20.50
2018-04-29T21:33:32.834Z,20.48
2018-04-29T21:36:02.349Z,20.48
2018-04-29T21:38:31.870Z,20.49
2018-04-29T21:41:01.447Z,20.46
2018-04-29T21:43:30.975Z,20.38
2018-04-29T21:46:00.499Z,20.35
2018-04-29T21:48:30.095Z,20.28
2018-04-29T21:50:59.637Z,20.21
2018-04-29T21:53:29.529Z,20.21
2018-04-29T21:55:59.034Z,20.19
2018-04-29T21:58:28.969Z,20.13
2018-04-29T22:00:59.573Z,20.12
2018-04-29T22:03:29.129Z,20.02
2018-04-29T22:05:58.658Z,20.02
2018-04-29T22:08:28.182Z,20.01
2018-04-29T22:10:57.757Z,19.93
2018-04-29T22:13:27.524Z,19.79
2018-04-29T22:15:57.053Z,19.75
2018-04-29T22:18:27.023Z,19.60
2018-04-29T22:20:56.625Z,19.26
2018-04-29T22:23:26.157Z,18.85
2018-04-29T22:25:55.691Z,18.47
2018-04-29T22:28:25.654Z,18.28
2018-04-29T22:30:54.935Z,18.00
2018-04-29T22:33:25.213Z,17.61
2018-04-29T22:35:55.141Z,17.47
2018-04-29T22:38:25.069Z,17.29
2018-04-29T22:40:54.608Z,17.26
2018-04-29T22:43:24.188Z,17.13
2018-04-29T22:45:53.859Z,17.05
2018-04-29T22:48:23.408Z,16.90
2018-04-29T22:50:52.955Z,16.77
2018-04-29T22:53:22.517Z,16.75
2018-04-29T22:55:52.044Z,16.65
2018-04-29T22:58:21.689Z,16.59
2018-04-29T23:00:51.289Z,16.48
2018-04-29T23:03:20.859Z,16.29
2018-04-29T23:05:50.485Z,16.15
2018-04-29T23:08:20.457Z,15.86
2018-04-29T23:10:50.377Z,15.89
2018-04-29T23:13:19.933Z,15.70
2018-04-29T23:15:49.887Z,15.77
2018-04-29T23:18:19.921Z,15.48
2018-04-29T23:20:49.571Z,15.50
2018-04-29T23:23:19.095Z,15.33
2018-04-29T23:25:48.616Z,15.25
2018-04-29T23:28:18.157Z,15.19
2018-04-29T23:30:47.705Z,14.97
2018-04-29T23:36:53.166Z,14.97
2018-04-29T23:39:22.951Z,14.89
2018-04-29T23:41:52.953Z,14.78
2018-04-29T23:44:22.199Z,14.73
2018-04-29T23:46:51.737Z,14.61
2018-04-29T23:49:21.771Z,14.51
2018-04-29T23:51:51.328Z,14.45
2018-04-29T23:54:20.613Z,14.24
2018-04-29T23:56:50.271Z,13.99
2018-04-29T23:59:20.252Z,13.95
